Time;durP1;ratioP1;P1;durP2;ratioP2;P2;SDS_P1;SDS_P2;PMS_P1;PMS_P2;Temp;Humidity;BMP_temperature;BMP_pressure;BME280_temperature;BME280_humidity;BME280_pressure;Samples;Min_cycle;Max_cycle;Signal;HPM_P1;HPM_P2
2023/10/16 00:01:38;;;;;;;1.17;0.50;;;17.90;45.10;;;;;;6155289;23;20194;-83
2023/10/16 00:04:06;;;;;;;2.60;0.40;;;17.90;45.10;;;;;;6129803;23;20147;-84
2023/10/16 00:06:33;;;;;;;0.68;0.40;;;17.90;45.10;;;;;;6129209;23;20159;-85
2023/10/16 00:11:37;;;;;;;2.53;0.55;;;17.90;45.10;;;;;;6131791;23;20140;-84
2023/10/16 00:14:13;;;;;;;1.10;0.38;;;17.90;45.10;;;;;;6104328;23;20159;-85
2023/10/16 00:16:39;;;;;;;0.65;0.32;;;17.90;45.10;;;;;;6106253;23;20166;-86
2023/10/16 00:19:09;;;;;;;1.48;0.40;;;17.90;45.10;;;;;;6128793;23;20139;-85
2023/10/16 00:21:43;;;;;;;1.20;0.40;;;17.80;45.10;;;;;;6129710;23;20590;-84
2023/10/16 00:24:10;;;;;;;1.42;0.30;;;17.90;45.20;;;;;;6130750;23;20218;-84
2023/10/16 00:26:35;;;;;;;2.63;0.47;;;17.90;45.20;;;;;;6128763;23;20159;-85
2023/10/16 00:29:17;;;;;;;1.42;0.40;;;17.80;45.20;;;;;;6128654;23;20535;-84
2023/10/16 00:31:43;;;;;;;1.60;0.40;;;17.80;45.20;;;;;;6132230;23;20135;-84
2023/10/16 00:34:09;;;;;;;0.63;0.35;;;17.90;45.30;;;;;;6104561;23;20229;-84
2023/10/16 00:36:35;;;;;;;0.77;0.30;;;17.80;45.20;;;;;;6104673;23;20635;-84
2023/10/16 00:39:12;;;;;;;1.13;0.50;;;17.80;45.20;;;;;;6129127;23;20186;-84
2023/10/16 00:41:39;;;;;;;1.02;0.40;;;17.90;45.40;;;;;;6131474;23;20143;-85
2023/10/16 00:44:05;;;;;;;0.68;0.40;;;17.90;45.40;;;;;;6104513;23;20523;-86
2023/10/16 00:46:36;;;;;;;0.68;0.40;;;17.80;45.40;;;;;;6104575;23;20179;-85
2023/10/16 00:49:05;;;;;;;2.35;0.50;;;17.80;45.40;;;;;;6105559;23;20147;-84
2023/10/16 00:51:35;;;;;;;1.60;0.57;;;17.80;45.30;;;;;;6104680;23;20163;-85
2023/10/16 00:54:02;;;;;;;1.20;0.50;;;17.80;45.40;;;;;;6128783;23;20139;-85
2023/10/16 00:56:28;;;;;;;1.50;0.40;;;17.80;45.40;;;;;;6131474;23;20135;-85
2023/10/16 00:58:55;;;;;;;1.38;0.40;;;17.80;45.40;;;;;;6130673;23;20162;-84
2023/10/16 01:01:23;;;;;;;0.70;0.40;;;17.90;45.50;;;;;;6106454;23;20183;-85
2023/10/16 01:03:50;;;;;;;1.35;0.35;;;17.80;45.50;;;;;;6106448;23;20151;-84
2023/10/16 01:06:16;;;;;;;0.40;0.30;;;17.80;45.50;;;;;;6156545;23;20167;-85
2023/10/16 01:08:46;;;;;;;0.85;0.30;;;17.70;45.40;;;;;;6106514;23;20178;-85
2023/10/16 01:11:14;;;;;;;1.50;0.40;;;17.80;45.50;;;;;;6130822;23;20139;-84
2023/10/16 01:13:41;;;;;;;0.70;0.43;;;17.80;45.50;;;;;;6157011;23;20143;-86
2023/10/16 01:16:07;;;;;;;0.85;0.30;;;17.80;45.60;;;;;;6106146;23;20242;-84
2023/10/16 01:18:34;;;;;;;0.63;0.38;;;17.80;45.50;;;;;;6130440;23;20588;-85
2023/10/16 01:21:04;;;;;;;0.77;0.50;;;17.80;45.50;;;;;;6130852;23;20587;-85
2023/10/16 01:23:31;;;;;;;0.75;0.35;;;17.80;45.60;;;;;;6107178;23;20151;-84
2023/10/16 01:25:59;;;;;;;2.65;0.60;;;17.70;45.50;;;;;;6130619;23;20201;-84
2023/10/16 01:28:25;;;;;;;1.15;0.50;;;17.80;45.60;;;;;;6081208;23;20155;-85
2023/10/16 01:30:52;;;;;;;0.70;0.32;;;17.80;45.60;;;;;;6130356;23;20571;-84
2023/10/16 01:33:19;;;;;;;0.47;0.30;;;17.80;45.60;;;;;;6106394;23;20208;-85
2023/10/16 01:35:45;;;;;;;2.38;0.50;;;17.80;45.50;;;;;;6106352;23;20183;-84
2023/10/16 01:38:18;;;;;;;0.40;0.40;;;17.80;45.60;;;;;;6130705;23;20579;-85
2023/10/16 01:40:47;;;;;;;0.45;0.40;;;17.80;45.70;;;;;;6130526;23;20151;-84
2023/10/16 01:43:14;;;;;;;2.25;0.30;;;17.70;45.70;;;;;;6130232;23;20672;-83
2023/10/16 01:45:49;;;;;;;0.95;0.40;;;17.80;45.80;;;;;;6106089;23;20190;-85
2023/10/16 01:48:19;;;;;;;0.40;0.30;;;17.80;45.70;;;;;;6132250;23;20128;-83
2023/10/16 01:50:48;;;;;;;0.55;0.40;;;17.80;45.70;;;;;;6131031;23;20127;-84
2023/10/16 01:53:15;;;;;;;0.50;0.45;;;17.70;45.70;;;;;;6105066;23;20179;-84
2023/10/16 01:55:51;;;;;;;2.15;0.38;;;17.70;45.80;;;;;;6130079;23;20159;-84
2023/10/16 01:58:17;;;;;;;1.02;0.47;;;17.80;45.80;;;;;;6107697;23;20158;-85
2023/10/16 02:00:45;;;;;;;1.10;0.32;;;17.70;45.80;;;;;;6105654;23;20199;-84
2023/10/16 02:03:11;;;;;;;0.93;0.50;;;17.80;45.70;;;;;;6106180;23;20206;-86
2023/10/16 02:05:41;;;;;;;1.52;0.47;;;17.80;45.80;;;;;;6129349;23;20955;-85
2023/10/16 02:08:07;;;;;;;1.23;0.40;;;17.70;45.80;;;;;;6131191;23;20166;-84
2023/10/16 02:10:33;;;;;;;0.40;0.40;;;17.70;45.80;;;;;;6130033;23;20158;-84
2023/10/16 02:12:59;;;;;;;0.80;0.43;;;17.70;45.80;;;;;;6130052;23;20571;-85
2023/10/16 02:15:25;;;;;;;1.13;0.30;;;17.70;45.80;;;;;;6130139;23;20136;-85
2023/10/16 02:17:51;;;;;;;0.63;0.20;;;17.70;45.80;;;;;;6156096;23;20885;-85
2023/10/16 02:20:19;;;;;;;1.40;0.38;;;17.70;45.80;;;;;;6130482;23;20479;-84
2023/10/16 02:22:46;;;;;;;0.63;0.40;;;17.70;45.90;;;;;;6130862;23;20459;-85
2023/10/16 02:25:12;;;;;;;1.10;0.40;;;17.70;45.90;;;;;;6129826;23;20152;-85
2023/10/16 02:27:38;;;;;;;0.35;0.35;;;17.80;45.90;;;;;;6105484;23;20226;-84
2023/10/16 02:32:49;;;;;;;2.35;0.57;;;17.70;45.80;;;;;;6133729;23;20594;-85
2023/10/16 02:35:15;;;;;;;0.77;0.38;;;17.80;46.10;;;;;;6156201;23;20215;-85
2023/10/16 02:37:41;;;;;;;0.50;0.40;;;17.70;45.90;;;;;;6156408;23;20174;-86
2023/10/16 02:40:10;;;;;;;0.80;0.38;;;17.70;46.00;;;;;;6129943;23;20224;-85
2023/10/16 02:42:38;;;;;;;2.53;0.45;;;17.70;46.10;;;;;;6155678;23;20136;-86
2023/10/16 02:45:17;;;;;;;1.38;0.65;;;17.70;46.00;;;;;;6105734;23;20163;-86
2023/10/16 02:47:43;;;;;;;0.30;0.25;;;17.70;46.00;;;;;;6107814;23;20209;-83
2023/10/16 02:50:09;;;;;;;0.85;0.50;;;17.70;46.00;;;;;;6129984;23;20141;-85
2023/10/16 02:52:35;;;;;;;0.63;0.40;;;17.70;46.00;;;;;;6129869;23;20741;-85
2023/10/16 02:55:01;;;;;;;0.32;0.32;;;17.70;46.10;;;;;;6154767;23;20132;-84
2023/10/16 02:57:27;;;;;;;0.50;0.38;;;17.70;46.00;;;;;;6129732;23;20480;-85
2023/10/16 02:59:53;;;;;;;1.75;0.47;;;17.70;46.10;;;;;;6100257;23;20232;-84
2023/10/16 03:02:23;;;;;;;1.00;0.30;;;17.70;46.10;;;;;;6124767;23;20148;-83
2023/10/16 03:04:51;;;;;;;0.40;0.30;;;17.70;46.10;;;;;;6101060;23;20156;-84
2023/10/16 03:07:20;;;;;;;1.27;0.40;;;17.70;46.10;;;;;;6125796;23;20164;-85
2023/10/16 03:09:49;;;;;;;0.68;0.40;;;17.70;46.20;;;;;;6101244;23;20150;-84
2023/10/16 03:12:16;;;;;;;0.88;0.40;;;17.70;46.10;;;;;;6125143;23;20158;-84
2023/10/16 03:14:45;;;;;;;0.50;0.32;;;17.70;46.20;;;;;;6100233;23;20223;-85
2023/10/16 03:17:19;;;;;;;0.70;0.40;;;17.70;46.20;;;;;;6100747;23;20651;-84
2023/10/16 03:19:48;;;;;;;1.02;0.50;;;17.60;46.20;;;;;;6124652;23;20215;-85
2023/10/16 03:22:16;;;;;;;0.38;0.30;;;17.70;46.20;;;;;;6100829;23;20190;-84
2023/10/16 03:24:43;;;;;;;0.43;0.30;;;17.70;46.20;;;;;;6100065;23;20160;-85
2023/10/16 03:27:11;;;;;;;0.40;0.40;;;17.70;46.20;;;;;;6124585;23;20169;-84
2023/10/16 03:29:36;;;;;;;0.60;0.40;;;17.70;46.20;;;;;;6099080;23;20152;-83
2023/10/16 03:32:02;;;;;;;1.45;0.55;;;17.70;46.20;;;;;;6100106;23;20153;-84
2023/10/16 03:34:31;;;;;;;0.90;0.40;;;17.70;46.20;;;;;;6124472;23;20215;-85
2023/10/16 03:37:01;;;;;;;1.10;0.30;;;17.60;46.20;;;;;;6124594;23;20464;-85
2023/10/16 03:39:27;;;;;;;1.05;0.47;;;17.70;46.30;;;;;;6124361;23;20239;-85
2023/10/16 03:41:53;;;;;;;0.70;0.47;;;17.60;46.30;;;;;;6125802;23;20271;-85
2023/10/16 03:44:21;;;;;;;0.43;0.30;;;17.70;46.30;;;;;;6124360;23;20164;-86
2023/10/16 03:46:49;;;;;;;1.98;0.50;;;17.70;46.30;;;;;;6124365;23;20250;-86
2023/10/16 03:49:15;;;;;;;0.73;0.50;;;17.70;46.30;;;;;;6100089;23;20147;-86
2023/10/16 03:51:41;;;;;;;0.80;0.60;;;17.60;46.30;;;;;;6124375;23;20143;-85
2023/10/16 03:54:06;;;;;;;0.45;0.30;;;17.70;46.40;;;;;;6123402;23;20568;-85
2023/10/16 03:56:32;;;;;;;0.77;0.40;;;17.70;46.40;;;;;;6124664;23;20171;-85
2023/10/16 03:58:58;;;;;;;1.27;0.60;;;17.70;46.40;;;;;;6100592;23;20588;-85
2023/10/16 04:01:27;;;;;;;0.75;0.40;;;17.70;46.40;;;;;;6155135;23;20151;-84
2023/10/16 04:03:56;;;;;;;0.52;0.50;;;17.60;46.30;;;;;;6129947;23;20166;-84
2023/10/16 04:06:26;;;;;;;1.05;0.35;;;17.70;47.00;;;;;;6104949;23;20175;-86
2023/10/16 04:08:53;;;;;;;0.90;0.50;;;17.70;46.40;;;;;;6056207;23;20174;-86
2023/10/16 04:11:24;;;;;;;0.70;0.45;;;17.70;46.40;;;;;;6129235;23;20136;-84
2023/10/16 04:13:50;;;;;;;0.38;0.30;;;17.70;46.50;;;;;;6080630;23;20530;-85
2023/10/16 04:21:40;;;;;;;1.02;0.43;;;17.60;46.50;;;;;;6155085;23;20143;-83
2023/10/16 04:24:30;;;;;;;0.80;0.40;;;17.70;46.50;;;;;;6129926;23;20135;-84
2023/10/16 04:29:46;;;;;;;0.40;0.38;;;17.60;46.50;;;;;;6113844;23;20554;-85
2023/10/16 04:35:27;;;;;;;0.82;0.38;;;17.60;46.60;;;;;;6135040;23;20471;-86
2023/10/16 04:37:49;;;;;;;1.08;0.43;;;17.70;46.60;;;;;;6156873;23;20500;-86
2023/10/16 04:43:07;;;;;;;0.63;0.30;;;17.60;46.50;;;;;;6132535;23;20140;-84
2023/10/16 04:45:59;;;;;;;0.70;0.43;;;17.70;46.60;;;;;;6130727;23;20151;-84
2023/10/16 04:48:23;;;;;;;1.30;0.40;;;17.60;46.60;;;;;;6135158;23;20213;-85
2023/10/16 04:51:09;;;;;;;0.65;0.30;;;17.60;46.60;;;;;;6058884;23;20869;-84
2023/10/16 04:53:47;;;;;;;1.17;0.50;;;17.60;46.60;;;;;;6109312;23;20151;-85
2023/10/16 04:56:30;;;;;;;0.98;0.50;;;17.60;46.60;;;;;;6133670;23;20202;-86
2023/10/16 04:59:11;;;;;;;0.73;0.40;;;17.60;46.60;;;;;;6089806;23;20242;-84
2023/10/16 05:07:06;;;;;;;1.23;0.45;;;17.60;46.60;;;;;;6133570;23;20171;-84
2023/10/16 06:16:17;;;;;;;0.30;0.30;;;17.80;44.70;;;;;;6125500;23;20140;-85
2023/10/16 06:18:45;;;;;;;0.80;0.30;;;17.80;44.60;;;;;;6102034;23;20514;-83
2023/10/16 06:21:15;;;;;;;1.08;0.38;;;17.80;44.50;;;;;;6078105;23;20162;-84
2023/10/16 06:23:48;;;;;;;0.28;0.28;;;17.80;44.60;;;;;;6103545;23;20211;-82
2023/10/16 06:26:15;;;;;;;0.80;0.30;;;17.70;44.50;;;;;;6128787;23;20171;-82
2023/10/16 06:28:56;;;;;;;1.02;0.40;;;17.80;44.50;;;;;;6128972;23;20128;-83
2023/10/16 06:31:23;;;;;;;0.45;0.35;;;17.70;44.40;;;;;;6134501;23;20137;-85
2023/10/16 06:33:53;;;;;;;0.50;0.30;;;17.70;44.20;;;;;;6105256;23;20520;-85
2023/10/16 06:36:20;;;;;;;1.45;0.35;;;17.70;44.20;;;;;;6128053;23;20139;-83
2023/10/16 06:38:51;;;;;;;0.30;0.30;;;17.80;44.20;;;;;;6129118;23;20435;-83
2023/10/16 06:41:19;;;;;;;0.63;0.30;;;17.80;44.10;;;;;;6104622;23;20160;-85
2023/10/16 06:43:47;;;;;;;0.45;0.20;;;17.70;44.00;;;;;;6101986;23;20588;-83
2023/10/16 06:46:21;;;;;;;0.30;0.30;;;17.70;44.10;;;;;;6128895;23;20214;-83
2023/10/16 06:48:50;;;;;;;0.57;0.22;;;17.70;44.10;;;;;;6096726;23;20144;-87
2023/10/16 06:54:37;;;;;;;0.52;0.30;;;17.70;44.00;;;;;;5899886;24;20245;-86
2023/10/16 06:57:19;;;;;;;0.98;0.30;;;17.80;43.90;;;;;;5877121;24;20233;-83
2023/10/16 06:59:45;;;;;;;0.32;0.30;;;17.80;44.00;;;;;;5899897;24;20205;-85
2023/10/16 07:02:19;;;;;;;0.30;0.22;;;17.70;43.90;;;;;;5903432;24;20470;-87
2023/10/16 07:04:50;;;;;;;0.35;0.20;;;17.80;44.00;;;;;;5882812;24;20228;-87
2023/10/16 07:07:34;;;;;;;1.77;0.30;;;17.70;44.00;;;;;;5886244;24;20193;-86
2023/10/16 07:10:21;;;;;;;0.60;0.47;;;17.70;44.10;;;;;;5885456;24;20161;-86
2023/10/16 07:13:05;;;;;;;0.50;0.40;;;17.80;44.00;;;;;;5851123;24;20214;-86
2023/10/16 07:16:16;;;;;;;;;;;;;;;;;;;;;
2023/10/16 07:18:56;;;;;;;;;;;;;;;;;;;;;
2023/10/16 07:21:25;;;;;;;0.60;0.30;;;17.80;43.80;;;;;;5804020;24;20186;-85
2023/10/16 07:23:53;;;;;;;1.63;0.30;;;17.80;44.00;;;;;;5879848;24;20165;-85
2023/10/16 07:26:29;;;;;;;1.13;0.30;;;17.90;44.00;;;;;;5879961;24;20197;-88
2023/10/16 07:29:00;;;;;;;0.57;0.30;;;17.80;44.10;;;;;;5876018;24;20176;-87
2023/10/16 07:31:30;;;;;;;0.20;0.20;;;17.90;44.00;;;;;;5881243;24;20162;-85
2023/10/16 07:34:33;;;;;;;1.00;0.40;;;17.80;43.80;;;;;;5877356;24;20158;-85
2023/10/16 07:37:07;;;;;;;0.90;0.20;;;17.90;43.90;;;;;;5801239;24;20187;-87
2023/10/16 07:39:46;;;;;;;;;;;;;;;;;;;;;
2023/10/16 07:42:15;;;;;;;1.52;0.20;;;17.90;43.80;;;;;;5771214;24;20592;-87
2023/10/16 07:44:59;;;;;;;0.45;0.30;;;17.90;43.80;;;;;;5798713;24;20171;-85
2023/10/16 07:47:30;;;;;;;0.77;0.28;;;17.90;43.80;;;;;;5782258;24;20220;-84
2023/10/16 07:50:21;;;;;;;1.73;0.30;;;17.90;43.90;;;;;;5783284;24;20589;-84
2023/10/16 07:53:25;;;;;;;2.45;0.40;;;17.90;43.90;;;;;;5879010;24;20894;-84
2023/10/16 07:55:52;;;;;;;4.53;0.47;;;17.90;44.10;;;;;;5930200;24;20160;-85
2023/10/16 07:58:33;;;;;;;2.53;0.50;;;18.00;44.00;;;;;;5932418;24;20226;-86
2023/10/16 08:01:53;;;;;;;;;;;;;;;;;;;;;
2023/10/16 08:04:27;;;;;;;0.52;0.25;;;18.10;44.10;;;;;;5903094;24;20188;-85
2023/10/16 08:07:18;;;;;;;0.65;0.40;;;18.10;43.80;;;;;;5906205;24;20288;-86
2023/10/16 08:13:17;;;;;;;0.77;0.40;;;18.20;43.50;;;;;;5904631;24;20173;-86
2023/10/16 08:15:59;;;;;;;1.13;0.50;;;18.20;43.50;;;;;;5852503;24;20190;-87
2023/10/16 08:18:48;;;;;;;4.15;0.40;;;18.20;43.60;;;;;;5817005;24;20167;-86
2023/10/16 08:29:19;;;;;;;1.38;0.40;;;18.00;43.80;;;;;;5783650;24;20283;-86
2023/10/16 08:34:49;;;;;;;2.50;0.45;;;18.00;44.00;;;;;;5771549;24;20208;-85
2023/10/16 08:37:15;;;;;;;0.63;0.30;;;18.10;44.10;;;;;;5768789;24;20168;-85
2023/10/16 08:39:50;;;;;;;1.98;0.40;;;18.10;44.20;;;;;;5769130;24;20177;-84
2023/10/16 08:42:21;;;;;;;1.30;0.30;;;18.00;44.00;;;;;;5769062;24;20168;-81
2023/10/16 08:44:52;;;;;;;1.42;0.30;;;18.10;44.10;;;;;;5788775;24;20214;-88
2023/10/16 08:47:25;;;;;;;2.88;0.30;;;18.20;44.00;;;;;;5746741;24;20211;-85
2023/10/16 08:49:56;;;;;;;3.47;0.40;;;18.30;44.00;;;;;;5826315;24;20162;-86
2023/10/16 08:52:33;;;;;;;3.60;0.40;;;18.20;43.60;;;;;;5826697;24;20163;-85
2023/10/16 08:55:23;;;;;;;0.47;0.20;;;18.20;43.50;;;;;;5774067;24;20156;-85
2023/10/16 08:58:04;;;;;;;1.10;0.30;;;18.30;43.50;;;;;;5791432;24;20182;-86
2023/10/16 09:00:30;;;;;;;1.95;0.40;;;18.20;43.50;;;;;;5821821;24;20717;-84
2023/10/16 09:03:03;;;;;;;3.15;0.40;;;18.20;43.50;;;;;;5838017;24;20176;-85
2023/10/16 09:05:48;;;;;;;1.85;0.40;;;18.20;43.70;;;;;;6003302;23;20191;-87
2023/10/16 09:08:20;;;;;;;1.20;0.30;;;18.30;44.40;;;;;;5980112;23;20148;-88
2023/10/16 09:10:55;;;;;;;1.30;0.30;;;18.30;44.00;;;;;;5984915;23;20155;-85
2023/10/16 09:13:26;;;;;;;1.52;0.32;;;18.30;44.10;;;;;;5939674;23;20151;-87
2023/10/16 09:15:53;;;;;;;1.23;0.38;;;18.30;43.90;;;;;;6016130;23;20623;-85
2023/10/16 09:18:39;;;;;;;3.38;0.40;;;18.30;44.00;;;;;;6019382;23;20178;-86
2023/10/16 09:21:13;;;;;;;1.55;0.32;;;18.30;43.70;;;;;;5953542;23;20217;-85
2023/10/16 09:23:51;;;;;;;0.80;0.30;;;18.30;43.90;;;;;;5993100;23;20158;-90
2023/10/16 09:26:19;;;;;;;1.88;0.30;;;18.30;43.70;;;;;;6017706;23;20518;-87
2023/10/16 09:28:54;;;;;;;3.00;0.35;;;18.30;44.00;;;;;;5999303;23;20158;-87
2023/10/16 09:31:20;;;;;;;2.65;0.30;;;18.30;43.60;;;;;;6025955;23;20149;-89
2023/10/16 09:33:48;;;;;;;0.57;0.30;;;18.30;43.90;;;;;;6071567;23;20177;-88
2023/10/16 09:36:20;;;;;;;1.70;0.47;;;18.30;43.40;;;;;;6075120;23;20160;-87
2023/10/16 09:38:57;;;;;;;2.05;0.57;;;18.30;43.40;;;;;;6060719;23;20157;-86
2023/10/16 09:44:09;;;;;;;0.45;0.30;;;18.30;43.40;;;;;;6082520;23;20465;-86
2023/10/16 09:49:24;;;;;;;2.88;0.50;;;18.40;43.40;;;;;;6007845;23;20153;-86
2023/10/16 09:51:57;;;;;;;0.90;0.22;;;18.40;43.10;;;;;;6020289;23;20157;-87
2023/10/16 09:54:25;;;;;;;0.70;0.30;;;18.40;43.20;;;;;;6001796;23;20173;-87
2023/10/16 09:56:58;;;;;;;3.88;0.30;;;18.40;43.30;;;;;;6007916;23;20157;-85
2023/10/16 09:59:33;;;;;;;2.28;0.20;;;18.40;43.20;;;;;;6052567;23;20148;-88
2023/10/16 10:02:05;;;;;;;0.52;0.30;;;18.40;43.70;;;;;;6046569;23;20205;-90
2023/10/16 10:04:32;;;;;;;0.20;0.20;;;18.30;43.20;;;;;;5995482;23;20181;-88
2023/10/16 10:06:58;;;;;;;1.88;0.40;;;18.40;43.30;;;;;;5992555;23;20217;-86
2023/10/16 10:09:41;;;;;;;3.28;0.47;;;18.40;43.40;;;;;;5993193;23;20158;-84
2023/10/16 10:12:22;;;;;;;1.65;0.30;;;18.40;43.10;;;;;;5995599;23;20186;-87
2023/10/16 10:15:05;;;;;;;1.02;0.25;;;18.40;43.10;;;;;;6041188;23;20154;-88
2023/10/16 10:17:30;;;;;;;1.50;0.40;;;18.50;43.10;;;;;;6031719;23;20157;-85
2023/10/16 10:19:58;;;;;;;3.40;0.35;;;18.40;43.00;;;;;;6044567;23;20721;-86
2023/10/16 10:22:27;;;;;;;0.98;0.50;;;18.40;43.20;;;;;;6046966;23;20192;-86
2023/10/16 10:25:35;;;;;;;1.63;0.30;;;18.40;43.30;;;;;;6067716;23;20598;-83
2023/10/16 10:28:09;;;;;;;0.50;0.20;;;18.50;43.20;;;;;;6054429;23;20161;-87
2023/10/16 10:30:43;;;;;;;1.80;0.32;;;18.40;42.90;;;;;;6051941;23;20669;-86
2023/10/16 10:33:10;;;;;;;0.63;0.30;;;18.40;43.00;;;;;;6002644;23;20281;-84
2023/10/16 10:35:43;;;;;;;2.92;0.30;;;18.40;43.10;;;;;;6082506;23;20158;-86
2023/10/16 10:38:17;;;;;;;1.38;0.30;;;18.30;43.20;;;;;;6106507;23;20204;-86
2023/10/16 10:41:14;;;;;;;0.55;0.35;;;18.40;43.20;;;;;;6086047;23;20155;-83
2023/10/16 10:43:58;;;;;;;1.13;0.55;;;18.40;43.00;;;;;;6061491;23;20211;-86
2023/10/16 10:46:41;;;;;;;1.02;0.38;;;18.40;43.00;;;;;;6040061;23;20180;-86
2023/10/16 10:49:15;;;;;;;0.40;0.30;;;18.40;43.20;;;;;;5969792;24;20152;-84
2023/10/16 10:51:53;;;;;;;0.80;0.30;;;18.40;43.00;;;;;;5971822;24;20147;-85
2023/10/16 10:54:58;;;;;;;0.55;0.22;;;18.40;42.90;;;;;;5855077;24;20166;-85
2023/10/16 12:22:03;;;;;;;0.43;0.15;;;18.40;42.90;;;;;;6168237;23;20244;-86
2023/10/16 12:24:29;;;;;;;0.43;0.30;;;18.40;42.80;;;;;;6099816;23;20164;-88
2023/10/16 12:27:01;;;;;;;0.45;0.30;;;18.30;42.80;;;;;;6076177;23;20174;-86
2023/10/16 12:29:27;;;;;;;0.43;0.25;;;18.40;42.90;;;;;;6029355;23;20484;-87
2023/10/16 12:31:55;;;;;;;0.20;0.20;;;18.40;42.70;;;;;;6099966;23;20199;-86
2023/10/16 12:34:24;;;;;;;1.27;0.20;;;18.40;42.70;;;;;;6076228;23;20167;-86
2023/10/16 12:36:50;;;;;;;0.47;0.30;;;18.50;42.80;;;;;;6027560;23;20159;-86
2023/10/16 12:39:16;;;;;;;0.55;0.13;;;18.30;42.60;;;;;;6100725;23;20191;-85
2023/10/16 12:41:43;;;;;;;1.67;0.30;;;18.40;42.80;;;;;;6126388;23;20141;-86
2023/10/16 12:44:09;;;;;;;0.55;0.20;;;18.40;42.70;;;;;;6075649;23;20163;-86
2023/10/16 12:46:37;;;;;;;0.40;0.20;;;18.40;42.70;;;;;;6099749;23;20596;-87
2023/10/16 12:49:07;;;;;;;0.20;0.20;;;18.50;42.70;;;;;;6075621;23;20206;-85
2023/10/16 12:51:36;;;;;;;1.13;0.30;;;18.40;42.60;;;;;;6030488;23;20654;-87
2023/10/16 12:54:06;;;;;;;1.55;0.22;;;18.40;42.60;;;;;;6082671;23;20152;-87
2023/10/16 12:56:32;;;;;;;2.00;0.30;;;18.40;42.60;;;;;;6102442;23;20639;-86
2023/10/16 12:58:59;;;;;;;0.20;0.20;;;18.40;42.60;;;;;;6101996;23;20137;-86
2023/10/16 13:01:25;;;;;;;0.20;0.20;;;18.40;42.60;;;;;;6101971;23;20139;-88
2023/10/16 13:03:51;;;;;;;1.38;0.20;;;18.40;42.50;;;;;;6077566;23;20152;-87
2023/10/16 13:06:16;;;;;;;1.23;0.20;;;18.50;42.60;;;;;;6077519;23;20178;-86
2023/10/16 13:08:42;;;;;;;0.30;0.15;;;18.40;42.50;;;;;;6101249;23;20162;-84
2023/10/16 13:11:16;;;;;;;0.75;0.40;;;18.40;42.40;;;;;;6076496;23;20144;-85
2023/10/16 13:13:42;;;;;;;0.25;0.20;;;18.40;42.40;;;;;;6101949;23;20128;-86
2023/10/16 13:16:08;;;;;;;0.20;0.20;;;18.40;42.40;;;;;;6077222;23;20607;-87
2023/10/16 13:18:43;;;;;;;0.32;0.20;;;18.40;42.40;;;;;;6077188;23;20283;-86
2023/10/16 13:21:16;;;;;;;0.20;0.20;;;18.40;42.40;;;;;;6102132;23;20140;-87
2023/10/16 13:23:42;;;;;;;0.25;0.20;;;18.40;42.30;;;;;;6102536;23;20198;-86
2023/10/16 13:26:08;;;;;;;1.33;0.28;;;18.40;42.30;;;;;;6101435;23;20168;-87
2023/10/16 13:28:47;;;;;;;;;;;;;;;;;;;;;
2023/10/16 13:31:13;;;;;;;1.75;0.20;;;18.40;42.50;;;;;;6065323;23;20234;-86
2023/10/16 13:35:02;;;;;;;;;;;;;;;;;;;;;
2023/10/16 13:38:06;;;;;;;;;;;;;;;;;;;;;
2023/10/16 13:41:09;;;;;;;0.95;0.28;;;18.50;42.30;;;;;;5985553;23;20226;-87
2023/10/16 13:43:42;;;;;;;0.77;0.20;;;18.40;42.40;;;;;;6008811;23;20213;-86
2023/10/16 13:46:13;;;;;;;1.65;0.10;;;18.40;42.40;;;;;;5963201;23;20210;-86
2023/10/16 13:48:58;;;;;;;0.10;0.10;;;18.40;42.40;;;;;;5963767;23;20498;-87
2023/10/16 13:52:04;;;;;;;;;;;;;;;;;;;;;
2023/10/16 13:55:11;;;;;;;;;;;;;;;;;;;;;
2023/10/16 14:00:57;;;;;;;0.30;0.20;;;18.40;42.40;;;;;;5909374;24;20160;-87
2023/10/16 14:04:18;;;;;;;0.10;0.10;;;18.40;42.30;;;;;;5906293;24;20157;-86
2023/10/16 14:06:47;;;;;;;0.63;0.20;;;18.40;42.40;;;;;;5897450;24;20783;-85
2023/10/16 14:13:00;;;;;;;0.30;0.10;;;18.40;42.40;;;;;;5845420;24;20159;-85
2023/10/16 14:16:03;;;;;;;0.20;0.20;;;18.40;42.50;;;;;;5811613;24;20157;-85
2023/10/16 14:22:43;;;;;;;;;;;;;;;;;;;;;
2023/10/16 14:25:57;;;;;;;;;;;;;;;;;;;;;
2023/10/16 14:28:44;;;;;;;;;;;;;;;;;;;;;
2023/10/16 14:31:17;;;;;;;0.40;0.17;;;18.30;42.50;;;;;;5667916;25;20258;-85
2023/10/16 14:34:35;;;;;;;0.80;0.15;;;18.30;42.60;;;;;;5725386;25;20188;-87
2023/10/16 14:41:06;;;;;;;;;;;;;;;;;;;;;
2023/10/16 14:44:12;;;;;;;;;;;;;;;;;;;;;
2023/10/16 14:47:15;;;;;;;1.20;0.73;;;18.40;42.70;;;;;;5606338;25;20227;-86
2023/10/16 14:49:48;;;;;;;0.88;0.20;;;18.30;42.80;;;;;;5667867;25;20156;-87
2023/10/16 14:52:47;;;;;;;1.58;0.20;;;18.40;43.00;;;;;;5624673;25;20521;-86
2023/10/16 14:55:56;;;;;;;0.65;0.20;;;18.30;42.90;;;;;;5579534;25;20591;-86
2023/10/16 14:58:27;;;;;;;0.52;0.40;;;18.30;42.90;;;;;;5550288;25;20254;-88
2023/10/16 15:00:56;;;;;;;0.20;0.13;;;18.30;43.10;;;;;;5576892;25;20177;-87
2023/10/16 15:03:22;;;;;;;1.25;0.20;;;18.30;43.00;;;;;;5594539;25;20176;-85
2023/10/16 15:05:49;;;;;;;0.10;0.10;;;18.30;43.10;;;;;;5591057;25;20169;-86
2023/10/16 15:08:20;;;;;;;2.38;0.30;;;18.30;43.10;;;;;;5592249;25;20314;-86
2023/10/16 15:10:47;;;;;;;0.80;0.15;;;18.30;43.10;;;;;;5613498;25;20213;-87
2023/10/16 15:13:14;;;;;;;0.77;0.10;;;18.30;43.10;;;;;;5612263;25;20166;-86
2023/10/16 15:15:45;;;;;;;0.10;0.10;;;18.20;43.20;;;;;;5564008;25;20258;-84
2023/10/16 15:18:12;;;;;;;2.05;0.20;;;18.20;43.20;;;;;;5676087;24;20158;-84
2023/10/16 15:20:39;;;;;;;0.30;0.10;;;18.30;43.20;;;;;;5816856;24;20183;-86
2023/10/16 15:23:11;;;;;;;0.40;0.20;;;18.30;43.10;;;;;;5862670;24;20288;-86
2023/10/16 15:25:45;;;;;;;1.00;0.20;;;18.30;43.00;;;;;;5879134;24;20222;-85
2023/10/16 15:28:13;;;;;;;0.30;0.20;;;18.30;43.10;;;;;;5896871;24;20613;-85
2023/10/16 15:30:44;;;;;;;0.45;0.17;;;18.30;43.10;;;;;;5882156;24;20239;-87
2023/10/16 15:33:16;;;;;;;0.63;0.20;;;18.30;43.10;;;;;;5906582;24;20569;-84
2023/10/16 15:35:51;;;;;;;0.10;0.10;;;18.30;43.10;;;;;;6010908;23;20156;-86
2023/10/16 15:38:23;;;;;;;1.27;0.20;;;18.30;43.30;;;;;;6056388;23;20203;-84
2023/10/16 15:40:55;;;;;;;1.30;0.20;;;18.30;44.10;;;;;;6011016;23;20494;-85
2023/10/16 15:43:21;;;;;;;1.42;0.22;;;18.30;43.60;;;;;;6055297;23;20231;-85
2023/10/16 15:45:50;;;;;;;0.60;0.47;;;18.30;43.70;;;;;;6103911;23;20148;-85
2023/10/16 15:48:17;;;;;;;1.30;0.20;;;18.40;43.70;;;;;;6081416;23;20560;-86
2023/10/16 15:51:03;;;;;;;0.50;0.25;;;18.30;43.80;;;;;;6031534;23;20573;-85
2023/10/16 15:53:31;;;;;;;0.13;0.13;;;18.30;43.90;;;;;;6058631;23;20659;-86
2023/10/16 15:56:11;;;;;;;0.35;0.28;;;18.30;43.80;;;;;;6082301;23;20565;-86
2023/10/16 15:58:39;;;;;;;3.58;0.30;;;18.40;43.80;;;;;;6081617;23;20148;-87
2023/10/16 16:01:13;;;;;;;5.47;0.70;;;18.40;44.00;;;;;;6079832;23;20152;-85
2023/10/16 16:03:39;;;;;;;3.38;0.50;;;18.40;44.00;;;;;;6011386;23;20199;-86
2023/10/16 16:06:12;;;;;;;4.25;0.77;;;18.30;44.00;;;;;;6102387;23;20239;-86
2023/10/16 16:08:40;;;;;;;8.93;0.50;;;18.30;44.20;;;;;;5992072;23;20161;-86
2023/10/16 16:11:07;;;;;;;3.17;0.63;;;18.30;44.10;;;;;;5995221;23;20225;-87
2023/10/16 16:13:33;;;;;;;7.35;0.77;;;18.30;44.00;;;;;;5992851;23;20138;-85
2023/10/16 16:16:05;;;;;;;7.25;0.70;;;18.30;44.00;;;;;;5993155;23;20184;-82
2023/10/16 16:18:32;;;;;;;4.53;0.57;;;18.30;44.10;;;;;;6016558;23;20161;-85
2023/10/16 16:20:58;;;;;;;8.15;0.85;;;18.40;43.90;;;;;;5991203;23;20146;-85
2023/10/16 16:23:25;;;;;;;3.22;0.50;;;18.30;44.50;;;;;;6014624;23;20689;-83
2023/10/16 16:25:53;;;;;;;2.72;0.47;;;18.40;44.00;;;;;;5992747;23;20150;-84
2023/10/16 16:28:19;;;;;;;2.22;0.45;;;18.40;44.10;;;;;;6018671;23;20130;-85
2023/10/16 16:30:45;;;;;;;5.28;0.70;;;18.40;44.20;;;;;;6015924;23;20150;-84
2023/10/16 16:33:13;;;;;;;3.13;0.30;;;18.40;43.90;;;;;;5994339;23;20161;-85
2023/10/16 16:35:44;;;;;;;0.93;0.40;;;18.40;43.70;;;;;;5992112;23;20146;-84
2023/10/16 16:38:13;;;;;;;1.58;0.43;;;18.50;43.70;;;;;;5990282;23;20181;-84
2023/10/16 16:40:46;;;;;;;1.63;0.30;;;18.50;43.60;;;;;;5956825;24;20159;-85
2023/10/16 16:43:13;;;;;;;0.95;0.65;;;18.50;43.60;;;;;;5934608;24;20163;-86
2023/10/16 16:45:45;;;;;;;3.25;0.32;;;18.50;43.40;;;;;;5912311;24;20175;-84
2023/10/16 16:48:11;;;;;;;1.40;0.30;;;18.40;43.10;;;;;;5960240;24;20254;-85
2023/10/16 16:50:41;;;;;;;4.35;0.30;;;18.50;43.10;;;;;;5959688;24;20488;-84
2023/10/16 16:53:10;;;;;;;2.85;0.30;;;18.40;43.20;;;;;;5960293;23;20159;-84
2023/10/16 16:55:37;;;;;;;4.43;0.40;;;18.40;43.10;;;;;;5920855;23;20154;-86
2023/10/16 16:58:04;;;;;;;1.30;0.40;;;18.40;43.00;;;;;;5965331;23;20163;-88
2023/10/16 17:00:37;;;;;;;2.85;0.60;;;18.40;42.80;;;;;;5965788;23;20158;-86
2023/10/16 17:03:03;;;;;;;5.70;0.57;;;18.40;43.10;;;;;;5941524;23;20170;-86
2023/10/16 17:05:29;;;;;;;4.60;0.40;;;18.40;43.00;;;;;;6009354;23;20172;-84
2023/10/16 17:07:56;;;;;;;5.38;0.73;;;18.40;43.00;;;;;;6041985;23;20169;-85